createdAt,value
2018-11-12T00:02:26.544Z,6.70
2018-11-12T00:04:57.270Z,6.80
2018-11-12T00:07:27.890Z,6.70
2018-11-12T00:09:58.428Z,6.70
2018-11-12T00:12:28.673Z,6.70
2018-11-12T00:14:59.473Z,6.70
2018-11-12T00:17:29.920Z,6.80
2018-11-12T00:22:56.770Z,7.10
2018-11-12T00:25:27.293Z,7.30
2018-11-12T00:27:57.883Z,7.30
2018-11-12T00:30:28.525Z,7.20
2018-11-12T00:32:58.962Z,7.00
2018-11-12T00:35:29.292Z,7.00
2018-11-12T00:37:59.855Z,6.90
2018-11-12T00:40:30.292Z,6.80
2018-11-12T00:43:00.764Z,6.70
2018-11-12T00:45:31.347Z,6.60
2018-11-12T00:48:02.060Z,6.50
2018-11-12T00:50:32.574Z,6.20
2018-11-12T00:53:03.118Z,6.10
2018-11-12T00:55:33.835Z,6.00
2018-11-12T00:58:04.569Z,5.90
2018-11-12T01:00:35.117Z,5.90
2018-11-12T01:03:06.030Z,5.90
2018-11-12T01:05:36.275Z,5.80
2018-11-12T01:08:06.832Z,5.80
2018-11-12T01:10:37.368Z,5.80
2018-11-12T01:13:07.680Z,5.80
2018-11-12T01:15:38.075Z,5.90
2018-11-12T01:18:09.163Z,5.90
2018-11-12T01:20:39.409Z,6.00
2018-11-12T01:23:09.670Z,6.00
2018-11-12T01:25:40.241Z,5.90
2018-11-12T01:28:10.423Z,5.90
2018-11-12T01:30:40.520Z,6.00
2018-11-12T01:33:10.735Z,6.20
2018-11-12T01:35:41.177Z,6.10
2018-11-12T01:38:12.428Z,6.10
2018-11-12T01:40:42.861Z,6.10
2018-11-12T01:43:13.351Z,6.10
2018-11-12T01:45:44.076Z,6.00
2018-11-12T01:48:14.633Z,5.90
2018-11-12T01:50:45.222Z,5.80
2018-11-12T01:53:15.532Z,5.80
2018-11-12T01:55:46.102Z,5.80
2018-11-12T01:58:16.553Z,5.70
2018-11-12T02:00:46.818Z,5.60
2018-11-12T02:03:17.377Z,5.70
2018-11-12T02:05:47.753Z,5.70
2018-11-12T02:08:18.169Z,5.60
2018-11-12T02:10:48.466Z,5.60
2018-11-12T02:13:19.053Z,5.60
2018-11-12T02:15:49.862Z,5.50
2018-11-12T02:18:20.228Z,5.40
2018-11-12T02:20:50.762Z,5.30
2018-11-12T02:23:21.303Z,5.20
2018-11-12T02:25:51.640Z,5.20
2018-11-12T02:28:22.176Z,5.10
2018-11-12T02:30:52.695Z,5.20
2018-11-12T02:33:23.487Z,5.10
2018-11-12T02:35:54.053Z,5.10
2018-11-12T02:38:24.472Z,5.00
2018-11-12T02:40:54.968Z,5.00
2018-11-12T02:43:25.543Z,5.00
2018-11-12T02:45:56.321Z,4.90
2018-11-12T02:48:27.443Z,4.90
2018-11-12T02:50:57.898Z,4.80
2018-11-12T02:53:28.499Z,4.80
2018-11-12T02:55:58.875Z,4.90
2018-11-12T02:58:29.582Z,4.90
2018-11-12T03:00:59.996Z,4.90
2018-11-12T03:03:30.545Z,4.90
2018-11-12T03:06:01.000Z,4.90
2018-11-12T03:08:31.507Z,4.90
2018-11-12T03:11:02.060Z,4.70
2018-11-12T03:13:32.677Z,4.70
2018-11-12T03:16:03.112Z,4.80
2018-11-12T03:18:33.556Z,4.80
2018-11-12T03:21:03.938Z,4.80
2018-11-12T03:23:34.734Z,4.90
2018-11-12T03:26:05.117Z,5.00
2018-11-12T03:28:35.670Z,5.10
2018-11-12T03:31:06.071Z,4.90
2018-11-12T03:33:36.685Z,4.80
2018-11-12T03:36:08.301Z,4.80
2018-11-12T03:38:38.621Z,4.70
2018-11-12T03:41:08.822Z,4.70
2018-11-12T03:43:39.134Z,4.70
2018-11-12T03:46:09.600Z,4.60
2018-11-12T03:48:40.236Z,4.50
2018-11-12T03:51:10.286Z,4.50
2018-11-12T03:53:40.802Z,4.50
2018-11-12T03:56:10.974Z,4.50
2018-11-12T03:58:41.275Z,4.50
2018-11-12T04:01:11.748Z,4.60
2018-11-12T04:03:41.914Z,4.60
2018-11-12T04:06:12.459Z,4.50
2018-11-12T04:08:43.479Z,4.40
2018-11-12T04:11:14.053Z,4.50
2018-11-12T04:13:44.388Z,4.40
2018-11-12T04:16:15.034Z,4.40
2018-11-12T04:18:45.510Z,4.40
2018-11-12T04:21:15.791Z,4.40
2018-11-12T04:23:46.033Z,4.50
2018-11-12T04:26:16.490Z,4.60
2018-11-12T04:28:46.682Z,4.60
2018-11-12T04:31:17.301Z,4.80
2018-11-12T04:33:47.531Z,4.90
2018-11-12T04:36:18.435Z,4.90
2018-11-12T04:38:48.850Z,4.80
2018-11-12T04:41:19.618Z,4.80
2018-11-12T04:43:50.339Z,4.60
2018-11-12T04:46:21.176Z,4.60
2018-11-12T04:48:51.377Z,4.60
2018-11-12T04:51:21.661Z,4.60
2018-11-12T04:53:52.300Z,4.60
2018-11-12T04:56:22.327Z,4.70
2018-11-12T04:58:52.822Z,4.70
2018-11-12T05:01:23.125Z,4.80
2018-11-12T05:03:53.735Z,4.80
2018-11-12T05:06:23.919Z,4.80
2018-11-12T05:08:54.831Z,4.80
2018-11-12T05:11:25.149Z,4.80
2018-11-12T05:13:55.324Z,4.90
2018-11-12T05:16:25.835Z,5.00
2018-11-12T05:18:56.267Z,5.20
2018-11-12T05:21:26.579Z,5.30
2018-11-12T05:23:57.016Z,5.50
2018-11-12T05:26:27.197Z,5.60
2018-11-12T05:28:57.809Z,5.60
2018-11-12T05:31:28.555Z,5.50
2018-11-12T05:33:59.018Z,5.40
2018-11-12T05:36:29.262Z,5.30
2018-11-12T05:38:59.596Z,5.20
2018-11-12T05:41:29.834Z,5.10
2018-11-12T05:44:00.241Z,5.00
2018-11-12T05:46:30.565Z,4.90
2018-11-12T05:49:00.757Z,4.90
2018-11-12T05:51:31.174Z,4.90
2018-11-12T05:54:01.859Z,4.80
2018-11-12T05:56:32.399Z,4.70
2018-11-12T05:59:04.310Z,4.90
2018-11-12T06:01:34.365Z,4.80
2018-11-12T06:04:04.503Z,4.70
2018-11-12T06:06:34.666Z,4.60
2018-11-12T06:09:05.292Z,4.60
2018-11-12T06:11:35.334Z,4.60
2018-11-12T06:14:05.565Z,4.60
2018-11-12T06:16:35.825Z,4.60
2018-11-12T06:19:05.950Z,4.60
2018-11-12T06:21:36.040Z,4.60
2018-11-12T06:24:06.289Z,4.60
2018-11-12T06:26:36.486Z,4.60
2018-11-12T06:29:07.080Z,4.70
2018-11-12T06:31:37.280Z,4.70
2018-11-12T06:34:07.472Z,4.70
2018-11-12T06:36:37.446Z,4.60
2018-11-12T06:39:09.213Z,4.70
2018-11-12T06:41:39.507Z,4.80
2018-11-12T06:44:09.988Z,4.90
2018-11-12T06:46:40.460Z,4.90
2018-11-12T06:49:10.676Z,4.90
2018-11-12T06:51:40.710Z,5.00
2018-11-12T06:54:10.728Z,5.10
2018-11-12T06:56:41.194Z,5.30
2018-11-12T06:59:11.458Z,5.30
2018-11-12T07:01:41.648Z,5.50
2018-11-12T07:04:12.616Z,5.60
2018-11-12T07:06:42.990Z,5.80
2018-11-12T07:09:13.779Z,6.10
2018-11-12T07:11:44.038Z,6.50
2018-11-12T07:14:29.864Z,7.10
2018-11-12T07:17:15.677Z,8.10
2018-11-12T07:19:51.539Z,8.70
2018-11-12T07:22:21.605Z,9.10
2018-11-12T07:24:51.670Z,9.40
2018-11-12T07:27:21.583Z,9.50
2018-11-12T07:29:51.773Z,9.80
2018-11-12T07:32:22.347Z,10.30
2018-11-12T07:34:52.548Z,10.70
2018-11-12T07:37:22.664Z,10.90
2018-11-12T07:39:52.600Z,10.60
2018-11-12T07:42:22.623Z,10.70
2018-11-12T07:44:52.627Z,10.90
2018-11-12T07:47:23.046Z,11.30
2018-11-12T07:49:53.075Z,11.30
2018-11-12T07:52:23.232Z,11.60
2018-11-12T07:54:53.345Z,11.50
2018-11-12T07:57:23.311Z,11.40
2018-11-12T07:59:53.372Z,11.30
2018-11-12T08:02:23.531Z,11.50
2018-11-12T08:04:53.456Z,11.60
2018-11-12T08:07:23.615Z,11.60
2018-11-12T08:09:53.628Z,11.60
2018-11-12T08:12:23.536Z,12.70
2018-11-12T08:14:53.650Z,13.40
2018-11-12T08:17:23.786Z,13.90
2018-11-12T08:19:53.720Z,15.00
2018-11-12T08:22:24.012Z,15.60
2018-11-12T08:24:54.307Z,16.70
2018-11-12T08:27:24.260Z,17.40
2018-11-12T08:29:54.315Z,16.60
2018-11-12T08:32:24.243Z,16.60
2018-11-12T08:34:55.880Z,16.60
2018-11-12T08:37:26.136Z,17.00
2018-11-12T08:39:56.373Z,18.60
2018-11-12T08:42:26.365Z,20.00
2018-11-12T08:44:56.567Z,20.00
2018-11-12T08:47:27.019Z,18.90
2018-11-12T08:49:57.360Z,17.50
2018-11-12T08:52:27.357Z,16.80
2018-11-12T08:54:57.591Z,17.60
2018-11-12T08:57:27.628Z,17.30
2018-11-12T08:59:57.754Z,17.00
2018-11-12T09:02:27.859Z,16.30
2018-11-12T09:04:58.034Z,16.10
2018-11-12T09:07:28.238Z,16.20
2018-11-12T09:09:58.286Z,16.60
2018-11-12T09:12:28.432Z,15.40
2018-11-12T09:14:58.576Z,14.80
2018-11-12T09:17:28.638Z,14.80
2018-11-12T09:19:58.735Z,14.90
2018-11-12T09:22:28.944Z,14.30
2018-11-12T09:24:59.074Z,12.90
2018-11-12T09:27:28.996Z,12.30
2018-11-12T09:29:59.059Z,12.00
2018-11-12T09:32:29.172Z,11.70
2018-11-12T09:34:59.202Z,11.30
2018-11-12T09:37:29.359Z,11.00
2018-11-12T09:39:59.396Z,11.20
2018-11-12T09:42:29.531Z,11.00
2018-11-12T09:44:59.515Z,11.30
2018-11-12T09:47:29.741Z,11.70
2018-11-12T09:49:59.943Z,11.30
2018-11-12T09:52:30.120Z,11.00
2018-11-12T09:55:00.372Z,10.80
2018-11-12T09:57:30.999Z,11.00
2018-11-12T10:00:01.003Z,11.30
2018-11-12T10:02:31.667Z,11.40
2018-11-12T10:05:02.563Z,11.40
2018-11-12T10:07:33.857Z,11.50
2018-11-12T10:10:03.814Z,11.70
2018-11-12T10:12:33.705Z,11.80
2018-11-12T10:15:05.284Z,11.80
2018-11-12T10:17:34.681Z,11.70
2018-11-12T10:20:03.625Z,12.10
2018-11-12T10:22:33.812Z,13.40
2018-11-12T10:25:03.838Z,13.90
2018-11-12T10:27:34.071Z,14.10
2018-11-12T10:30:04.579Z,14.60
2018-11-12T10:32:34.701Z,14.30
2018-11-12T10:35:04.849Z,14.60
2018-11-12T10:37:34.768Z,14.80
2018-11-12T10:40:06.130Z,14.80
2018-11-12T10:45:06.133Z,12.90
2018-11-12T10:47:37.094Z,12.90
2018-11-12T10:50:07.632Z,14.30
2018-11-12T10:52:37.710Z,15.50
2018-11-12T10:55:10.397Z,15.90
2018-11-12T10:57:40.678Z,15.80
2018-11-12T11:00:20.097Z,15.90
2018-11-12T11:02:56.039Z,15.50
2018-11-12T11:05:25.966Z,14.70
2018-11-12T11:07:55.950Z,13.80
2018-11-12T11:10:27.726Z,13.20
2018-11-12T11:12:59.265Z,13.20
2018-11-12T11:15:29.832Z,13.20
2018-11-12T11:18:00.132Z,13.10
2018-11-12T11:20:30.628Z,13.00
2018-11-12T11:23:01.584Z,12.80
2018-11-12T11:25:31.777Z,12.50
2018-11-12T11:28:02.733Z,12.50
2018-11-12T11:30:32.802Z,12.70
2018-11-12T11:33:02.631Z,12.70
2018-11-12T11:35:32.582Z,12.90
2018-11-12T11:38:02.665Z,12.80
2018-11-12T11:40:33.021Z,12.80
2018-11-12T11:43:03.210Z,12.60
2018-11-12T11:45:33.428Z,12.60
2018-11-12T11:48:04.016Z,12.60
2018-11-12T11:50:34.472Z,12.60
2018-11-12T11:53:04.404Z,12.50
2018-11-12T11:55:34.408Z,12.40
2018-11-12T11:58:05.715Z,12.40
2018-11-12T12:00:36.054Z,12.40
2018-11-12T12:03:06.273Z,12.50
2018-11-12T12:05:36.437Z,12.20
2018-11-12T12:08:06.688Z,12.30
2018-11-12T12:10:36.937Z,12.40
2018-11-12T12:13:07.086Z,12.50
2018-11-12T12:15:37.137Z,12.50
2018-11-12T12:18:07.314Z,12.50
2018-11-12T12:20:37.668Z,12.40
2018-11-12T12:23:07.656Z,12.50
2018-11-12T12:25:37.831Z,12.40
2018-11-12T12:28:08.045Z,12.60
2018-11-12T12:30:38.174Z,12.70
2018-11-12T12:33:08.300Z,12.60
2018-11-12T12:35:38.775Z,12.70
2018-11-12T12:38:08.882Z,12.80
2018-11-12T12:40:38.983Z,12.90
2018-11-12T12:43:09.098Z,13.00
2018-11-12T12:45:39.414Z,13.10
2018-11-12T12:48:09.527Z,13.10
2018-11-12T12:50:39.563Z,13.30
2018-11-12T12:53:09.794Z,13.40
2018-11-12T12:55:39.933Z,13.60
2018-11-12T12:58:10.122Z,13.70
2018-11-12T13:00:40.206Z,13.80
2018-11-12T13:03:10.378Z,13.80
2018-11-12T13:05:40.385Z,13.90
2018-11-12T13:08:11.279Z,13.90
2018-11-12T13:10:41.394Z,14.00
2018-11-12T13:13:11.611Z,14.10
2018-11-12T13:15:41.836Z,14.20
2018-11-12T13:18:12.041Z,14.30
2018-11-12T13:20:42.665Z,14.30
2018-11-12T13:23:12.759Z,14.30
2018-11-12T13:25:42.748Z,14.50
2018-11-12T13:28:13.217Z,14.60
2018-11-12T13:30:43.171Z,14.60
2018-11-12T13:33:13.061Z,14.70
2018-11-12T13:35:43.848Z,14.70
2018-11-12T13:38:14.141Z,14.80
2018-11-12T13:40:43.868Z,14.90
2018-11-12T13:43:14.019Z,14.90
2018-11-12T13:45:43.919Z,14.80
2018-11-12T13:48:14.382Z,14.90
2018-11-12T13:50:44.521Z,15.00
2018-11-12T13:53:14.587Z,15.00
2018-11-12T13:55:44.986Z,14.90
2018-11-12T13:58:14.911Z,14.90
2018-11-12T14:00:45.029Z,14.90
2018-11-12T14:03:15.271Z,14.90
2018-11-12T14:05:45.290Z,15.10
2018-11-12T14:08:15.592Z,15.10
2018-11-12T14:10:46.840Z,15.20
2018-11-12T14:13:16.848Z,15.20
2018-11-12T14:15:46.789Z,15.20
2018-11-12T14:18:17.003Z,15.20
2018-11-12T14:20:47.141Z,15.20
2018-11-12T14:23:17.064Z,15.20
2018-11-12T14:25:47.092Z,15.10
2018-11-12T14:28:17.396Z,15.20
2018-11-12T14:30:47.729Z,15.10
2018-11-12T14:33:17.705Z,15.00
2018-11-12T14:35:47.838Z,15.00
2018-11-12T14:38:18.095Z,15.00
2018-11-12T14:40:48.434Z,14.90
2018-11-12T14:43:18.707Z,15.00
2018-11-12T14:45:49.388Z,15.10
2018-11-12T14:48:19.946Z,15.40
2018-11-12T14:50:50.386Z,15.70
2018-11-12T14:53:20.640Z,16.10
2018-11-12T14:55:51.466Z,16.20
2018-11-12T14:58:21.399Z,16.40
2018-11-12T15:00:51.640Z,16.40
2018-11-12T15:03:21.755Z,16.40
2018-11-12T15:05:51.885Z,16.10
2018-11-12T15:08:22.030Z,15.80
2018-11-12T15:10:52.256Z,15.60
2018-11-12T15:13:22.480Z,15.30
2018-11-12T15:15:52.774Z,14.90
2018-11-12T15:18:22.725Z,14.40
2018-11-12T15:20:53.235Z,14.10
2018-11-12T15:23:23.412Z,13.90
2018-11-12T15:25:53.522Z,13.60
2018-11-12T15:28:23.625Z,13.40
2018-11-12T15:30:53.605Z,13.20
2018-11-12T15:33:23.788Z,12.90
2018-11-12T15:35:54.592Z,12.80
2018-11-12T15:38:24.901Z,12.70
2018-11-12T15:40:55.113Z,12.50
2018-11-12T15:43:25.278Z,12.40
2018-11-12T15:45:55.715Z,12.30
2018-11-12T15:49:24.716Z,12.10
2018-11-12T15:51:54.654Z,12.00
2018-11-12T15:54:24.850Z,12.00
2018-11-12T15:56:54.976Z,11.80
2018-11-12T15:59:24.965Z,11.60
2018-11-12T16:01:56.165Z,11.40
2018-11-12T16:04:26.311Z,11.40
2018-11-12T16:06:56.421Z,11.40
2018-11-12T16:09:26.575Z,11.30
2018-11-12T16:11:56.806Z,11.30
2018-11-12T16:14:26.984Z,11.30
2018-11-12T16:16:57.232Z,11.20
2018-11-12T16:19:27.429Z,11.30
2018-11-12T16:21:57.585Z,11.10
2018-11-12T16:24:28.601Z,10.90
2018-11-12T16:26:58.990Z,10.90
2018-11-12T16:29:28.992Z,10.70
2018-11-12T16:31:59.235Z,10.60
2018-11-12T16:34:29.440Z,10.50
2018-11-12T16:36:59.792Z,10.50
2018-11-12T16:39:29.911Z,10.40
2018-11-12T16:42:00.083Z,10.30
2018-11-12T16:44:30.261Z,10.20
2018-11-12T16:47:00.481Z,10.20
2018-11-12T16:49:30.694Z,10.00
2018-11-12T16:52:00.835Z,10.10
2018-11-12T16:54:30.905Z,10.10
2018-11-12T16:57:01.639Z,10.00
2018-11-12T16:59:31.846Z,9.90
2018-11-12T17:02:01.895Z,9.80
2018-11-12T17:04:31.951Z,9.70
2018-11-12T17:07:02.019Z,9.70
2018-11-12T17:09:32.249Z,9.80
2018-11-12T17:12:02.609Z,9.70
2018-11-12T17:14:32.923Z,9.60
2018-11-12T17:17:04.178Z,9.40
2018-11-12T17:19:34.214Z,9.30
2018-11-12T17:22:04.383Z,9.20
2018-11-12T17:24:34.560Z,9.40
2018-11-12T17:27:04.749Z,9.40
2018-11-12T17:29:35.176Z,9.30
2018-11-12T17:32:05.437Z,9.20
2018-11-12T17:34:35.631Z,9.00
2018-11-12T17:37:05.872Z,8.90
2018-11-12T17:39:36.033Z,8.80
2018-11-12T17:42:06.146Z,8.90
2018-11-12T17:44:36.520Z,8.80
2018-11-12T17:47:06.916Z,8.80
2018-11-12T17:49:37.250Z,8.90
2018-11-12T17:52:07.432Z,8.90
2018-11-12T17:54:37.596Z,8.90
2018-11-12T17:57:07.714Z,8.90
2018-11-12T17:59:37.883Z,9.00
2018-11-12T18:02:08.110Z,8.90
2018-11-12T18:04:38.333Z,8.90
2018-11-12T18:07:08.392Z,8.80
2018-11-12T18:09:38.632Z,8.70
2018-11-12T18:12:08.905Z,8.70
2018-11-12T18:14:38.952Z,8.60
2018-11-12T18:17:09.776Z,8.60
2018-11-12T18:19:39.895Z,8.50
2018-11-12T18:22:09.927Z,8.70
2018-11-12T18:24:40.115Z,8.60
2018-11-12T18:27:10.178Z,8.40
2018-11-12T18:29:40.253Z,8.30
2018-11-12T18:32:10.602Z,8.20
2018-11-12T18:34:40.552Z,8.20
2018-11-12T18:37:10.967Z,8.20
2018-11-12T18:39:41.093Z,8.10
2018-11-12T18:42:11.215Z,8.10
2018-11-12T18:44:41.151Z,8.10
2018-11-12T18:47:12.458Z,8.10
2018-11-12T18:49:42.396Z,8.10
2018-11-12T18:52:12.709Z,8.00
2018-11-12T18:54:42.995Z,7.90
2018-11-12T18:57:13.000Z,7.90
2018-11-12T18:59:43.892Z,7.90
2018-11-12T19:02:13.940Z,7.90
2018-11-12T19:04:44.047Z,8.00
2018-11-12T19:07:14.256Z,8.20
2018-11-12T19:09:44.252Z,8.30
2018-11-12T19:12:14.251Z,8.30
2018-11-12T19:14:44.486Z,8.20
2018-11-12T19:17:14.729Z,8.20
2018-11-12T19:19:45.161Z,8.00
2018-11-12T19:22:15.796Z,7.90
2018-11-12T19:24:45.893Z,7.80
2018-11-12T19:27:16.244Z,7.80
2018-11-12T19:29:46.460Z,7.70
2018-11-12T19:32:16.676Z,7.60
2018-11-12T19:34:47.974Z,7.50
2018-11-12T19:37:18.169Z,7.40
2018-11-12T19:39:48.422Z,7.40
2018-11-12T19:42:18.651Z,7.40
2018-11-12T19:44:48.884Z,7.40
2018-11-12T19:47:19.431Z,7.60
2018-11-12T19:49:49.593Z,7.60
2018-11-12T19:52:20.672Z,7.50
2018-11-12T19:54:50.808Z,7.40
2018-11-12T19:57:20.967Z,7.40
2018-11-12T19:59:51.086Z,7.50
2018-11-12T20:02:21.352Z,7.50
2018-11-12T20:04:51.662Z,7.50
2018-11-12T20:07:21.945Z,7.40
2018-11-12T20:09:52.058Z,7.30
2018-11-12T20:12:22.532Z,7.30
2018-11-12T20:14:52.860Z,7.20
2018-11-12T20:17:23.190Z,7.10
2018-11-12T20:19:53.499Z,7.00
2018-11-12T20:22:23.499Z,6.90
2018-11-12T20:24:53.495Z,6.90
2018-11-12T20:27:23.566Z,6.90
2018-11-12T20:29:53.681Z,6.90
2018-11-12T20:32:23.934Z,6.90
2018-11-12T20:34:54.144Z,6.80
2018-11-12T20:37:24.271Z,6.80
2018-11-12T20:39:54.380Z,6.80
2018-11-12T20:42:24.571Z,6.70
2018-11-12T20:44:54.724Z,6.70
2018-11-12T20:47:25.157Z,6.70
2018-11-12T20:49:55.661Z,6.80
2018-11-12T20:52:26.696Z,6.70
2018-11-12T20:54:57.233Z,6.70
2018-11-12T20:57:27.525Z,6.90
2018-11-12T20:59:57.734Z,6.90
2018-11-12T21:02:27.971Z,7.10
2018-11-12T21:04:58.157Z,7.00
2018-11-12T21:07:28.136Z,7.00
2018-11-12T21:09:58.326Z,6.90
2018-11-12T21:12:28.453Z,6.90
2018-11-12T21:14:58.567Z,6.90
2018-11-12T21:17:28.795Z,6.90
2018-11-12T21:19:58.811Z,6.70
2018-11-12T21:22:28.970Z,6.90
2018-11-12T21:25:00.143Z,6.90
2018-11-12T21:27:30.932Z,6.80
2018-11-12T21:30:01.905Z,6.90
2018-11-12T21:32:33.982Z,6.80
2018-11-12T21:35:04.557Z,6.80
2018-11-12T21:37:34.682Z,6.80
2018-11-12T21:40:05.478Z,6.80
2018-11-12T21:42:35.658Z,6.70
2018-11-12T21:45:06.558Z,6.60
2018-11-12T21:47:36.895Z,6.60
2018-11-12T21:50:08.971Z,6.60
2018-11-12T21:52:39.158Z,6.60
2018-11-12T21:55:10.328Z,6.50
2018-11-12T21:57:40.865Z,6.40
2018-11-12T22:00:30.599Z,6.40
2018-11-12T22:03:02.044Z,6.30
2018-11-12T22:05:32.973Z,6.20
2018-11-12T22:08:04.050Z,6.20
2018-11-12T22:10:34.534Z,6.30
2018-11-12T22:13:04.998Z,6.30
2018-11-12T22:15:35.323Z,6.20
2018-11-12T22:18:05.743Z,6.20
2018-11-12T22:20:35.947Z,6.10
2018-11-12T22:23:05.989Z,6.00
2018-11-12T22:25:36.370Z,5.90
2018-11-12T22:28:06.756Z,5.90
2018-11-12T22:30:36.961Z,6.20
2018-11-12T22:33:07.344Z,6.30
2018-11-12T22:35:37.850Z,6.20
2018-11-12T22:38:08.062Z,6.20
2018-11-12T22:40:39.023Z,6.40
2018-11-12T22:43:09.328Z,6.40
2018-11-12T22:45:39.315Z,6.50
2018-11-12T22:48:09.766Z,6.50
2018-11-12T22:50:39.896Z,6.60
2018-11-12T22:53:10.048Z,6.50
2018-11-12T22:55:40.135Z,6.50
2018-11-12T22:58:10.261Z,6.30
2018-11-12T23:00:43.957Z,6.30
2018-11-12T23:03:14.343Z,6.40
2018-11-12T23:05:44.649Z,6.40
2018-11-12T23:08:14.825Z,6.30
2018-11-12T23:10:45.060Z,6.20
2018-11-12T23:13:15.116Z,6.20
2018-11-12T23:15:45.367Z,6.20
2018-11-12T23:18:15.668Z,6.10
2018-11-12T23:20:45.822Z,6.10
2018-11-12T23:23:15.744Z,6.10
2018-11-12T23:25:45.774Z,6.10
2018-11-12T23:28:16.007Z,6.10
2018-11-12T23:30:46.330Z,6.10
2018-11-12T23:33:16.388Z,6.10
2018-11-12T23:35:46.524Z,6.10
2018-11-12T23:38:16.613Z,6.30
2018-11-12T23:40:46.506Z,6.20
2018-11-12T23:43:16.691Z,6.30
2018-11-12T23:45:46.830Z,6.50
2018-11-12T23:48:17.442Z,6.60
2018-11-12T23:50:47.771Z,6.60
2018-11-12T23:53:18.324Z,6.70
2018-11-12T23:55:48.423Z,6.60
2018-11-12T23:58:18.546Z,6.70
